sensor_id;sensor_type;location;lat;lon;timestamp;temperature;humidity
25188;DHT22;13141;50.414;8.050;2023-07-20T00:01:44;19.70;99.50
25188;DHT22;13141;50.414;8.050;2023-07-20T00:04:10;19.60;99.30
25188;DHT22;13141;50.414;8.050;2023-07-20T00:06:36;19.50;99.80
25188;DHT22;13141;50.414;8.050;2023-07-20T00:09:01;19.50;99.40
25188;DHT22;13141;50.414;8.050;2023-07-20T00:11:27;19.50;99.90
25188;DHT22;13141;50.414;8.050;2023-07-20T00:13:55;19.40;99.90
25188;DHT22;13141;50.414;8.050;2023-07-20T00:16:20;19.40;99.90
25188;DHT22;13141;50.414;8.050;2023-07-20T00:18:46;19.30;99.90
25188;DHT22;13141;50.414;8.050;2023-07-20T00:21:11;19.20;99.80
25188;DHT22;13141;50.414;8.050;2023-07-20T00:23:38;19.30;99.90
25188;DHT22;13141;50.414;8.050;2023-07-20T00:26:04;19.20;99.90
25188;DHT22;13141;50.414;8.050;2023-07-20T00:28:29;19.30;99.90
25188;DHT22;13141;50.414;8.050;2023-07-20T00:30:56;19.20;99.90
25188;DHT22;13141;50.414;8.050;2023-07-20T00:33:24;19.10;99.90
25188;DHT22;13141;50.414;8.050;2023-07-20T00:35:51;19.30;99.90
25188;DHT22;13141;50.414;8.050;2023-07-20T00:38:16;19.10;99.90
25188;DHT22;13141;50.414;8.050;2023-07-20T00:40:42;19.00;99.90
25188;DHT22;13141;50.414;8.050;2023-07-20T00:43:10;19.00;99.90
25188;DHT22;13141;50.414;8.050;2023-07-20T00:45:36;18.90;99.90
25188;DHT22;13141;50.414;8.050;2023-07-20T00:48:04;18.90;99.90
25188;DHT22;13141;50.414;8.050;2023-07-20T00:50:31;18.80;99.90
25188;DHT22;13141;50.414;8.050;2023-07-20T00:52:57;18.80;99.90
25188;DHT22;13141;50.414;8.050;2023-07-20T00:55:23;18.80;99.90
25188;DHT22;13141;50.414;8.050;2023-07-20T00:57:50;18.70;99.90
25188;DHT22;13141;50.414;8.050;2023-07-20T01:00:17;18.70;99.90
25188;DHT22;13141;50.414;8.050;2023-07-20T01:02:42;18.70;99.90
25188;DHT22;13141;50.414;8.050;2023-07-20T01:05:10;18.60;99.90
25188;DHT22;13141;50.414;8.050;2023-07-20T01:07:40;18.60;99.90
25188;DHT22;13141;50.414;8.050;2023-07-20T01:10:12;18.60;99.90
25188;DHT22;13141;50.414;8.050;2023-07-20T01:12:42;18.50;99.90
25188;DHT22;13141;50.414;8.050;2023-07-20T01:15:08;18.50;99.90
25188;DHT22;13141;50.414;8.050;2023-07-20T01:17:34;18.50;99.90
25188;DHT22;13141;50.414;8.050;2023-07-20T01:20:00;18.40;99.90
25188;DHT22;13141;50.414;8.050;2023-07-20T01:23:02;18.40;99.90
25188;DHT22;13141;50.414;8.050;2023-07-20T01:25:45;18.30;99.90
25188;DHT22;13141;50.414;8.050;2023-07-20T01:28:35;18.30;99.90
25188;DHT22;13141;50.414;8.050;2023-07-20T01:31:21;18.30;99.90
25188;DHT22;13141;50.414;8.050;2023-07-20T01:33:47;18.20;99.90
25188;DHT22;13141;50.414;8.050;2023-07-20T01:36:14;18.20;99.90
25188;DHT22;13141;50.414;8.050;2023-07-20T01:38:42;18.20;99.90
25188;DHT22;13141;50.414;8.050;2023-07-20T01:41:08;18.20;99.90
25188;DHT22;13141;50.414;8.050;2023-07-20T01:43:34;18.10;99.90
25188;DHT22;13141;50.414;8.050;2023-07-20T01:46:00;18.10;99.90
25188;DHT22;13141;50.414;8.050;2023-07-20T01:48:27;18.10;99.90
25188;DHT22;13141;50.414;8.050;2023-07-20T01:50:53;18.10;99.90
25188;DHT22;13141;50.414;8.050;2023-07-20T01:53:19;18.10;99.90
25188;DHT22;13141;50.414;8.050;2023-07-20T01:55:45;18.10;99.90
25188;DHT22;13141;50.414;8.050;2023-07-20T01:58:10;18.10;99.90
25188;DHT22;13141;50.414;8.050;2023-07-20T02:00:37;18.10;99.90
25188;DHT22;13141;50.414;8.050;2023-07-20T02:03:03;18.10;99.90
25188;DHT22;13141;50.414;8.050;2023-07-20T02:05:30;18.10;99.90
25188;DHT22;13141;50.414;8.050;2023-07-20T02:07:56;18.00;99.90
25188;DHT22;13141;50.414;8.050;2023-07-20T02:10:21;18.00;99.90
25188;DHT22;13141;50.414;8.050;2023-07-20T02:12:47;17.90;99.90
25188;DHT22;13141;50.414;8.050;2023-07-20T02:15:13;17.90;99.90
25188;DHT22;13141;50.414;8.050;2023-07-20T02:17:40;17.90;99.90
25188;DHT22;13141;50.414;8.050;2023-07-20T02:20:06;17.90;99.90
25188;DHT22;13141;50.414;8.050;2023-07-20T02:22:33;17.90;99.90
25188;DHT22;13141;50.414;8.050;2023-07-20T02:24:59;18.10;99.90
25188;DHT22;13141;50.414;8.050;2023-07-20T02:27:25;17.90;99.90
25188;DHT22;13141;50.414;8.050;2023-07-20T02:29:50;17.90;99.90
25188;DHT22;13141;50.414;8.050;2023-07-20T02:32:16;18.00;99.90
25188;DHT22;13141;50.414;8.050;2023-07-20T02:34:42;17.80;99.90
25188;DHT22;13141;50.414;8.050;2023-07-20T02:37:07;17.90;99.90
25188;DHT22;13141;50.414;8.050;2023-07-20T02:39:34;17.90;99.90
25188;DHT22;13141;50.414;8.050;2023-07-20T02:42:00;17.90;99.90
25188;DHT22;13141;50.414;8.050;2023-07-20T02:44:26;18.20;99.90
25188;DHT22;13141;50.414;8.050;2023-07-20T02:46:51;18.10;99.90
25188;DHT22;13141;50.414;8.050;2023-07-20T02:49:17;18.00;99.90
25188;DHT22;13141;50.414;8.050;2023-07-20T02:51:44;18.00;99.90
25188;DHT22;13141;50.414;8.050;2023-07-20T02:54:09;18.00;99.90
25188;DHT22;13141;50.414;8.050;2023-07-20T02:56:36;18.10;99.90
25188;DHT22;13141;50.414;8.050;2023-07-20T02:59:03;18.00;99.90
25188;DHT22;13141;50.414;8.050;2023-07-20T03:01:29;17.90;99.90
25188;DHT22;13141;50.414;8.050;2023-07-20T03:03:55;17.80;99.90
25188;DHT22;13141;50.414;8.050;2023-07-20T03:06:21;17.60;99.90
25188;DHT22;13141;50.414;8.050;2023-07-20T03:08:47;17.60;99.90
25188;DHT22;13141;50.414;8.050;2023-07-20T03:11:13;17.60;99.90
25188;DHT22;13141;50.414;8.050;2023-07-20T03:13:40;17.70;99.90
25188;DHT22;13141;50.414;8.050;2023-07-20T03:16:06;17.70;99.90
25188;DHT22;13141;50.414;8.050;2023-07-20T03:18:31;17.70;99.90
25188;DHT22;13141;50.414;8.050;2023-07-20T03:20:57;17.70;99.90
25188;DHT22;13141;50.414;8.050;2023-07-20T03:23:23;17.70;99.90
25188;DHT22;13141;50.414;8.050;2023-07-20T03:25:49;17.70;99.90
25188;DHT22;13141;50.414;8.050;2023-07-20T03:28:14;17.50;99.90
25188;DHT22;13141;50.414;8.050;2023-07-20T03:30:41;17.80;99.90
25188;DHT22;13141;50.414;8.050;2023-07-20T03:33:10;17.70;99.90
25188;DHT22;13141;50.414;8.050;2023-07-20T03:35:36;17.70;99.90
25188;DHT22;13141;50.414;8.050;2023-07-20T03:38:01;17.70;99.90
25188;DHT22;13141;50.414;8.050;2023-07-20T03:40:30;17.70;99.90
25188;DHT22;13141;50.414;8.050;2023-07-20T03:42:56;17.90;99.90
25188;DHT22;13141;50.414;8.050;2023-07-20T03:45:22;17.70;99.90
25188;DHT22;13141;50.414;8.050;2023-07-20T03:47:49;17.70;99.90
25188;DHT22;13141;50.414;8.050;2023-07-20T03:50:15;17.70;99.90
25188;DHT22;13141;50.414;8.050;2023-07-20T03:52:40;17.80;99.90
25188;DHT22;13141;50.414;8.050;2023-07-20T03:55:07;17.80;99.90
25188;DHT22;13141;50.414;8.050;2023-07-20T03:57:33;17.50;99.90
25188;DHT22;13141;50.414;8.050;2023-07-20T03:59:59;17.40;99.90
25188;DHT22;13141;50.414;8.050;2023-07-20T04:02:25;17.40;99.90
25188;DHT22;13141;50.414;8.050;2023-07-20T04:04:52;17.20;99.90
25188;DHT22;13141;50.414;8.050;2023-07-20T04:07:17;17.20;99.90
25188;DHT22;13141;50.414;8.050;2023-07-20T04:09:43;17.30;99.90
25188;DHT22;13141;50.414;8.050;2023-07-20T04:12:09;17.20;99.90
25188;DHT22;13141;50.414;8.050;2023-07-20T04:14:35;17.20;99.90
25188;DHT22;13141;50.414;8.050;2023-07-20T04:17:00;17.10;99.90
25188;DHT22;13141;50.414;8.050;2023-07-20T04:19:26;17.20;99.90
25188;DHT22;13141;50.414;8.050;2023-07-20T04:21:53;17.30;99.90
25188;DHT22;13141;50.414;8.050;2023-07-20T04:24:19;17.20;99.90
25188;DHT22;13141;50.414;8.050;2023-07-20T04:26:44;17.30;99.90
25188;DHT22;13141;50.414;8.050;2023-07-20T04:29:10;17.30;99.90
25188;DHT22;13141;50.414;8.050;2023-07-20T04:31:36;17.40;99.90
25188;DHT22;13141;50.414;8.050;2023-07-20T04:34:01;17.40;99.90
25188;DHT22;13141;50.414;8.050;2023-07-20T04:36:27;17.50;99.90
25188;DHT22;13141;50.414;8.050;2023-07-20T04:38:54;17.50;99.90
25188;DHT22;13141;50.414;8.050;2023-07-20T04:41:19;17.50;99.90
25188;DHT22;13141;50.414;8.050;2023-07-20T04:43:45;17.50;99.90
25188;DHT22;13141;50.414;8.050;2023-07-20T04:46:11;17.50;99.90
25188;DHT22;13141;50.414;8.050;2023-07-20T04:48:37;17.50;99.90
25188;DHT22;13141;50.414;8.050;2023-07-20T04:51:03;17.50;99.90
25188;DHT22;13141;50.414;8.050;2023-07-20T04:53:28;17.60;99.90
25188;DHT22;13141;50.414;8.050;2023-07-20T04:55:55;17.50;99.90
25188;DHT22;13141;50.414;8.050;2023-07-20T04:58:22;17.50;99.90
25188;DHT22;13141;50.414;8.050;2023-07-20T05:00:48;17.50;99.90
25188;DHT22;13141;50.414;8.050;2023-07-20T05:03:14;17.50;99.90
25188;DHT22;13141;50.414;8.050;2023-07-20T05:05:39;17.40;99.90
25188;DHT22;13141;50.414;8.050;2023-07-20T05:08:05;17.40;99.90
25188;DHT22;13141;50.414;8.050;2023-07-20T05:10:31;17.20;99.90
25188;DHT22;13141;50.414;8.050;2023-07-20T05:12:59;17.20;99.90
25188;DHT22;13141;50.414;8.050;2023-07-20T05:15:25;17.20;99.90
25188;DHT22;13141;50.414;8.050;2023-07-20T05:17:52;17.30;99.90
25188;DHT22;13141;50.414;8.050;2023-07-20T05:20:18;17.20;99.90
25188;DHT22;13141;50.414;8.050;2023-07-20T05:22:44;17.10;99.90
25188;DHT22;13141;50.414;8.050;2023-07-20T05:25:10;17.20;99.90
25188;DHT22;13141;50.414;8.050;2023-07-20T05:27:37;17.30;99.90
25188;DHT22;13141;50.414;8.050;2023-07-20T05:30:05;17.30;99.90
25188;DHT22;13141;50.414;8.050;2023-07-20T05:32:31;17.20;99.90
25188;DHT22;13141;50.414;8.050;2023-07-20T05:34:56;17.20;99.90
25188;DHT22;13141;50.414;8.050;2023-07-20T05:37:22;17.30;99.90
25188;DHT22;13141;50.414;8.050;2023-07-20T05:39:48;17.40;99.90
25188;DHT22;13141;50.414;8.050;2023-07-20T05:42:13;17.60;99.90
25188;DHT22;13141;50.414;8.050;2023-07-20T05:44:40;17.90;99.90
25188;DHT22;13141;50.414;8.050;2023-07-20T05:47:08;17.80;99.90
25188;DHT22;13141;50.414;8.050;2023-07-20T05:49:34;17.80;99.90
25188;DHT22;13141;50.414;8.050;2023-07-20T05:52:00;17.80;99.90
25188;DHT22;13141;50.414;8.050;2023-07-20T05:54:25;17.80;99.90
25188;DHT22;13141;50.414;8.050;2023-07-20T05:56:51;17.80;99.90
25188;DHT22;13141;50.414;8.050;2023-07-20T05:59:17;17.80;99.90
25188;DHT22;13141;50.414;8.050;2023-07-20T06:01:43;17.80;99.90
25188;DHT22;13141;50.414;8.050;2023-07-20T06:04:10;17.90;99.90
25188;DHT22;13141;50.414;8.050;2023-07-20T06:06:36;17.90;99.90
25188;DHT22;13141;50.414;8.050;2023-07-20T06:09:01;17.80;99.90
25188;DHT22;13141;50.414;8.050;2023-07-20T06:11:27;17.80;99.90
25188;DHT22;13141;50.414;8.050;2023-07-20T06:13:53;18.10;99.90
25188;DHT22;13141;50.414;8.050;2023-07-20T06:16:18;18.10;99.90
25188;DHT22;13141;50.414;8.050;2023-07-20T06:18:44;17.70;99.90
25188;DHT22;13141;50.414;8.050;2023-07-20T06:21:11;18.10;99.90
25188;DHT22;13141;50.414;8.050;2023-07-20T06:23:37;18.00;99.90
25188;DHT22;13141;50.414;8.050;2023-07-20T06:26:05;18.00;99.90
25188;DHT22;13141;50.414;8.050;2023-07-20T06:28:31;18.10;99.90
25188;DHT22;13141;50.414;8.050;2023-07-20T06:31:00;18.20;99.90
25188;DHT22;13141;50.414;8.050;2023-07-20T06:33:26;18.30;99.90
25188;DHT22;13141;50.414;8.050;2023-07-20T06:35:51;18.30;99.90
25188;DHT22;13141;50.414;8.050;2023-07-20T06:38:18;18.30;99.90
25188;DHT22;13141;50.414;8.050;2023-07-20T06:40:46;18.40;99.90
25188;DHT22;13141;50.414;8.050;2023-07-20T06:43:11;18.50;99.90
25188;DHT22;13141;50.414;8.050;2023-07-20T06:45:37;18.80;99.90
25188;DHT22;13141;50.414;8.050;2023-07-20T06:48:03;18.70;99.90
25188;DHT22;13141;50.414;8.050;2023-07-20T06:50:29;18.80;99.90
25188;DHT22;13141;50.414;8.050;2023-07-20T06:52:54;18.80;99.90
25188;DHT22;13141;50.414;8.050;2023-07-20T06:55:23;18.90;99.90
25188;DHT22;13141;50.414;8.050;2023-07-20T06:57:48;19.00;99.90
25188;DHT22;13141;50.414;8.050;2023-07-20T07:00:15;19.10;99.90
25188;DHT22;13141;50.414;8.050;2023-07-20T07:02:41;19.20;99.90
25188;DHT22;13141;50.414;8.050;2023-07-20T07:05:07;19.20;99.90
25188;DHT22;13141;50.414;8.050;2023-07-20T07:07:32;19.20;99.90
25188;DHT22;13141;50.414;8.050;2023-07-20T07:09:59;19.30;99.90
25188;DHT22;13141;50.414;8.050;2023-07-20T07:12:26;19.40;99.90
25188;DHT22;13141;50.414;8.050;2023-07-20T07:14:52;19.50;99.90
25188;DHT22;13141;50.414;8.050;2023-07-20T07:17:18;19.60;99.90
25188;DHT22;13141;50.414;8.050;2023-07-20T07:19:44;19.60;99.90
25188;DHT22;13141;50.414;8.050;2023-07-20T07:22:11;19.70;99.90
25188;DHT22;13141;50.414;8.050;2023-07-20T07:24:37;19.70;99.90
25188;DHT22;13141;50.414;8.050;2023-07-20T07:27:03;19.80;99.90
25188;DHT22;13141;50.414;8.050;2023-07-20T07:29:30;19.90;99.90
25188;DHT22;13141;50.414;8.050;2023-07-20T07:31:56;19.90;99.90
25188;DHT22;13141;50.414;8.050;2023-07-20T07:34:22;20.00;99.90
25188;DHT22;13141;50.414;8.050;2023-07-20T07:36:47;20.10;99.90
25188;DHT22;13141;50.414;8.050;2023-07-20T07:39:13;20.10;99.90
25188;DHT22;13141;50.414;8.050;2023-07-20T07:41:39;20.20;99.90
25188;DHT22;13141;50.414;8.050;2023-07-20T07:44:04;20.20;99.90
25188;DHT22;13141;50.414;8.050;2023-07-20T07:46:31;20.10;99.90
25188;DHT22;13141;50.414;8.050;2023-07-20T07:48:57;20.20;99.90
25188;DHT22;13141;50.414;8.050;2023-07-20T07:51:23;20.20;99.90
25188;DHT22;13141;50.414;8.050;2023-07-20T07:53:48;20.30;99.90
25188;DHT22;13141;50.414;8.050;2023-07-20T07:56:14;20.40;99.90
25188;DHT22;13141;50.414;8.050;2023-07-20T07:58:40;20.50;99.90
25188;DHT22;13141;50.414;8.050;2023-07-20T08:01:06;20.50;99.90
25188;DHT22;13141;50.414;8.050;2023-07-20T08:03:33;20.50;99.90
25188;DHT22;13141;50.414;8.050;2023-07-20T08:05:59;20.50;99.90
25188;DHT22;13141;50.414;8.050;2023-07-20T08:08:25;20.60;99.90
25188;DHT22;13141;50.414;8.050;2023-07-20T08:10:53;20.90;99.90
25188;DHT22;13141;50.414;8.050;2023-07-20T08:13:19;21.10;99.90
25188;DHT22;13141;50.414;8.050;2023-07-20T08:15:49;21.40;99.90
25188;DHT22;13141;50.414;8.050;2023-07-20T08:18:15;21.60;99.90
25188;DHT22;13141;50.414;8.050;2023-07-20T08:20:46;21.80;99.90
25188;DHT22;13141;50.414;8.050;2023-07-20T08:23:12;21.90;99.90
25188;DHT22;13141;50.414;8.050;2023-07-20T08:25:38;22.10;99.90
25188;DHT22;13141;50.414;8.050;2023-07-20T08:28:04;22.40;99.90
25188;DHT22;13141;50.414;8.050;2023-07-20T08:30:40;22.70;99.90
25188;DHT22;13141;50.414;8.050;2023-07-20T08:33:06;22.70;99.90
25188;DHT22;13141;50.414;8.050;2023-07-20T08:35:31;22.50;99.90
25188;DHT22;13141;50.414;8.050;2023-07-20T08:37:58;22.50;99.90
25188;DHT22;13141;50.414;8.050;2023-07-20T08:40:24;22.70;99.90
25188;DHT22;13141;50.414;8.050;2023-07-20T08:42:50;22.50;99.10
25188;DHT22;13141;50.414;8.050;2023-07-20T08:45:17;22.40;99.40
25188;DHT22;13141;50.414;8.050;2023-07-20T08:47:44;23.10;99.50
25188;DHT22;13141;50.414;8.050;2023-07-20T08:50:11;23.30;99.90
25188;DHT22;13141;50.414;8.050;2023-07-20T08:52:38;23.50;98.20
25188;DHT22;13141;50.414;8.050;2023-07-20T08:55:06;23.70;97.60
25188;DHT22;13141;50.414;8.050;2023-07-20T08:57:33;23.40;97.10
25188;DHT22;13141;50.414;8.050;2023-07-20T09:00:00;23.60;97.70
25188;DHT22;13141;50.414;8.050;2023-07-20T09:02:27;23.50;97.90
25188;DHT22;13141;50.414;8.050;2023-07-20T09:04:53;23.60;97.80
25188;DHT22;13141;50.414;8.050;2023-07-20T09:07:19;23.90;96.50
25188;DHT22;13141;50.414;8.050;2023-07-20T09:09:45;24.20;96.30
25188;DHT22;13141;50.414;8.050;2023-07-20T09:12:15;24.10;96.80
25188;DHT22;13141;50.414;8.050;2023-07-20T09:14:43;23.80;97.30
25188;DHT22;13141;50.414;8.050;2023-07-20T09:17:13;23.50;97.00
25188;DHT22;13141;50.414;8.050;2023-07-20T09:19:42;23.30;98.00
25188;DHT22;13141;50.414;8.050;2023-07-20T09:22:10;23.10;97.60
25188;DHT22;13141;50.414;8.050;2023-07-20T09:24:36;23.00;97.70
25188;DHT22;13141;50.414;8.050;2023-07-20T09:27:02;23.00;98.20
25188;DHT22;13141;50.414;8.050;2023-07-20T09:29:31;23.40;97.50
25188;DHT22;13141;50.414;8.050;2023-07-20T09:32:00;23.90;96.00
25188;DHT22;13141;50.414;8.050;2023-07-20T09:34:26;23.90;96.60
25188;DHT22;13141;50.414;8.050;2023-07-20T09:36:52;23.80;96.40
25188;DHT22;13141;50.414;8.050;2023-07-20T09:39:18;23.70;95.80
25188;DHT22;13141;50.414;8.050;2023-07-20T09:41:43;23.70;96.30
25188;DHT22;13141;50.414;8.050;2023-07-20T09:44:10;23.60;95.90
25188;DHT22;13141;50.414;8.050;2023-07-20T09:46:44;23.60;96.30
25188;DHT22;13141;50.414;8.050;2023-07-20T09:49:09;23.30;96.00
25188;DHT22;13141;50.414;8.050;2023-07-20T09:51:36;23.50;95.70
25188;DHT22;13141;50.414;8.050;2023-07-20T09:54:02;23.90;95.90
25188;DHT22;13141;50.414;8.050;2023-07-20T09:56:31;24.30;95.10
25188;DHT22;13141;50.414;8.050;2023-07-20T09:59:00;24.20;94.80
25188;DHT22;13141;50.414;8.050;2023-07-20T10:01:26;24.70;94.70
25188;DHT22;13141;50.414;8.050;2023-07-20T10:03:57;25.30;94.70
25188;DHT22;13141;50.414;8.050;2023-07-20T10:06:24;25.60;92.90
25188;DHT22;13141;50.414;8.050;2023-07-20T10:08:53;25.40;93.90
25188;DHT22;13141;50.414;8.050;2023-07-20T10:11:19;25.50;93.10
25188;DHT22;13141;50.414;8.050;2023-07-20T10:13:49;25.30;91.90
25188;DHT22;13141;50.414;8.050;2023-07-20T10:16:22;25.70;91.90
25188;DHT22;13141;50.414;8.050;2023-07-20T10:18:58;26.10;91.00
25188;DHT22;13141;50.414;8.050;2023-07-20T10:21:25;26.00;90.30
25188;DHT22;13141;50.414;8.050;2023-07-20T10:23:51;25.60;91.20
25188;DHT22;13141;50.414;8.050;2023-07-20T10:26:17;25.60;92.00
25188;DHT22;13141;50.414;8.050;2023-07-20T10:28:42;25.30;90.50
25188;DHT22;13141;50.414;8.050;2023-07-20T10:31:09;25.00;91.30
25188;DHT22;13141;50.414;8.050;2023-07-20T10:33:37;25.50;91.70
25188;DHT22;13141;50.414;8.050;2023-07-20T10:36:05;25.90;90.70
25188;DHT22;13141;50.414;8.050;2023-07-20T10:38:41;26.10;90.50
25188;DHT22;13141;50.414;8.050;2023-07-20T10:41:16;26.30;86.80
25188;DHT22;13141;50.414;8.050;2023-07-20T10:43:42;26.30;88.50
25188;DHT22;13141;50.414;8.050;2023-07-20T10:46:11;26.40;88.80
25188;DHT22;13141;50.414;8.050;2023-07-20T10:49:02;26.60;85.80
25188;DHT22;13141;50.414;8.050;2023-07-20T10:51:28;27.10;87.10
25188;DHT22;13141;50.414;8.050;2023-07-20T10:53:55;27.30;81.60
25188;DHT22;13141;50.414;8.050;2023-07-20T10:56:22;27.30;81.00
25188;DHT22;13141;50.414;8.050;2023-07-20T10:58:47;26.90;83.90
25188;DHT22;13141;50.414;8.050;2023-07-20T11:01:14;27.30;87.00
25188;DHT22;13141;50.414;8.050;2023-07-20T11:03:41;27.10;83.40
25188;DHT22;13141;50.414;8.050;2023-07-20T11:06:30;26.80;82.90
25188;DHT22;13141;50.414;8.050;2023-07-20T11:09:04;26.50;81.40
25188;DHT22;13141;50.414;8.050;2023-07-20T11:11:31;26.80;82.20
25188;DHT22;13141;50.414;8.050;2023-07-20T11:13:58;27.30;85.50
25188;DHT22;13141;50.414;8.050;2023-07-20T11:16:46;27.30;81.40
25188;DHT22;13141;50.414;8.050;2023-07-20T11:19:16;27.50;77.90
25188;DHT22;13141;50.414;8.050;2023-07-20T11:21:44;27.50;73.30
25188;DHT22;13141;50.414;8.050;2023-07-20T11:24:10;27.70;76.30
25188;DHT22;13141;50.414;8.050;2023-07-20T11:26:40;28.00;79.80
25188;DHT22;13141;50.414;8.050;2023-07-20T11:29:06;28.50;78.80
25188;DHT22;13141;50.414;8.050;2023-07-20T11:31:35;28.70;77.10
25188;DHT22;13141;50.414;8.050;2023-07-20T11:34:01;29.00;76.40
25188;DHT22;13141;50.414;8.050;2023-07-20T11:36:26;29.20;74.30
25188;DHT22;13141;50.414;8.050;2023-07-20T11:38:55;29.50;75.80
25188;DHT22;13141;50.414;8.050;2023-07-20T11:41:20;29.40;69.50
25188;DHT22;13141;50.414;8.050;2023-07-20T11:43:46;29.00;71.00
25188;DHT22;13141;50.414;8.050;2023-07-20T11:46:12;29.20;70.10
25188;DHT22;13141;50.414;8.050;2023-07-20T11:48:38;29.20;68.70
25188;DHT22;13141;50.414;8.050;2023-07-20T11:51:04;29.50;70.00
25188;DHT22;13141;50.414;8.050;2023-07-20T11:53:30;29.80;67.60
25188;DHT22;13141;50.414;8.050;2023-07-20T11:55:57;29.50;67.60
25188;DHT22;13141;50.414;8.050;2023-07-20T11:58:22;29.70;66.30
25188;DHT22;13141;50.414;8.050;2023-07-20T12:00:48;30.00;71.10
25188;DHT22;13141;50.414;8.050;2023-07-20T12:03:14;30.70;68.90
25188;DHT22;13141;50.414;8.050;2023-07-20T12:05:39;30.60;62.20
25188;DHT22;13141;50.414;8.050;2023-07-20T12:08:05;30.60;68.30
25188;DHT22;13141;50.414;8.050;2023-07-20T12:10:31;30.80;61.40
25188;DHT22;13141;50.414;8.050;2023-07-20T12:13:03;30.90;64.00
25188;DHT22;13141;50.414;8.050;2023-07-20T12:15:28;30.80;59.60
25188;DHT22;13141;50.414;8.050;2023-07-20T12:17:55;30.80;61.20
25188;DHT22;13141;50.414;8.050;2023-07-20T12:20:26;30.90;64.70
25188;DHT22;13141;50.414;8.050;2023-07-20T12:22:52;30.70;62.00
25188;DHT22;13141;50.414;8.050;2023-07-20T12:25:18;31.10;61.10
25188;DHT22;13141;50.414;8.050;2023-07-20T12:27:44;31.30;62.00
25188;DHT22;13141;50.414;8.050;2023-07-20T12:30:11;31.50;57.10
25188;DHT22;13141;50.414;8.050;2023-07-20T12:32:37;30.90;57.00
25188;DHT22;13141;50.414;8.050;2023-07-20T12:35:03;30.40;58.20
25188;DHT22;13141;50.414;8.050;2023-07-20T12:37:29;30.00;60.20
25188;DHT22;13141;50.414;8.050;2023-07-20T12:39:55;29.70;62.00
25188;DHT22;13141;50.414;8.050;2023-07-20T12:42:20;29.60;60.90
25188;DHT22;13141;50.414;8.050;2023-07-20T12:44:48;29.30;58.10
25188;DHT22;13141;50.414;8.050;2023-07-20T12:47:16;29.00;58.80
25188;DHT22;13141;50.414;8.050;2023-07-20T12:49:41;28.80;59.60
25188;DHT22;13141;50.414;8.050;2023-07-20T12:52:07;28.70;59.80
25188;DHT22;13141;50.414;8.050;2023-07-20T12:54:33;28.30;58.80
25188;DHT22;13141;50.414;8.050;2023-07-20T12:56:59;28.00;59.60
25188;DHT22;13141;50.414;8.050;2023-07-20T12:59:24;27.90;60.80
25188;DHT22;13141;50.414;8.050;2023-07-20T13:01:50;27.90;59.60
25188;DHT22;13141;50.414;8.050;2023-07-20T13:04:17;27.90;59.70
25188;DHT22;13141;50.414;8.050;2023-07-20T13:06:42;28.10;59.80
25188;DHT22;13141;50.414;8.050;2023-07-20T13:09:08;28.40;59.70
25188;DHT22;13141;50.414;8.050;2023-07-20T13:11:34;28.60;59.50
25188;DHT22;13141;50.414;8.050;2023-07-20T13:13:59;28.80;60.10
25188;DHT22;13141;50.414;8.050;2023-07-20T13:16:25;28.90;59.20
25188;DHT22;13141;50.414;8.050;2023-07-20T13:18:51;28.80;60.10
25188;DHT22;13141;50.414;8.050;2023-07-20T13:21:17;28.70;60.90
25188;DHT22;13141;50.414;8.050;2023-07-20T13:23:44;28.60;59.80
25188;DHT22;13141;50.414;8.050;2023-07-20T13:26:10;28.30;60.10
25188;DHT22;13141;50.414;8.050;2023-07-20T13:28:36;28.00;59.00
25188;DHT22;13141;50.414;8.050;2023-07-20T13:31:01;27.90;59.80
25188;DHT22;13141;50.414;8.050;2023-07-20T13:33:27;27.50;58.50
25188;DHT22;13141;50.414;8.050;2023-07-20T13:35:53;27.30;60.60
25188;DHT22;13141;50.414;8.050;2023-07-20T13:38:20;27.10;60.40
25188;DHT22;13141;50.414;8.050;2023-07-20T13:40:48;27.10;60.60
25188;DHT22;13141;50.414;8.050;2023-07-20T13:43:13;26.90;63.60
25188;DHT22;13141;50.414;8.050;2023-07-20T13:45:39;26.80;62.60
25188;DHT22;13141;50.414;8.050;2023-07-20T13:48:05;26.80;61.80
25188;DHT22;13141;50.414;8.050;2023-07-20T13:50:31;26.80;62.80
25188;DHT22;13141;50.414;8.050;2023-07-20T13:52:56;26.80;61.10
25188;DHT22;13141;50.414;8.050;2023-07-20T13:55:23;26.80;61.10
25188;DHT22;13141;50.414;8.050;2023-07-20T13:57:49;26.70;61.30
25188;DHT22;13141;50.414;8.050;2023-07-20T14:00:15;26.60;61.50
25188;DHT22;13141;50.414;8.050;2023-07-20T14:02:41;26.70;62.40
25188;DHT22;13141;50.414;8.050;2023-07-20T14:05:07;26.70;61.60
25188;DHT22;13141;50.414;8.050;2023-07-20T14:07:33;26.70;62.10
25188;DHT22;13141;50.414;8.050;2023-07-20T14:09:58;26.80;63.20
25188;DHT22;13141;50.414;8.050;2023-07-20T14:12:26;26.90;63.10
25188;DHT22;13141;50.414;8.050;2023-07-20T14:14:53;27.10;62.70
25188;DHT22;13141;50.414;8.050;2023-07-20T14:17:18;27.20;65.20
25188;DHT22;13141;50.414;8.050;2023-07-20T14:19:44;27.50;63.90
25188;DHT22;13141;50.414;8.050;2023-07-20T14:22:10;27.40;62.10
25188;DHT22;13141;50.414;8.050;2023-07-20T14:24:35;27.50;62.40
25188;DHT22;13141;50.414;8.050;2023-07-20T14:27:01;27.60;61.40
25188;DHT22;13141;50.414;8.050;2023-07-20T14:29:28;27.60;65.10
25188;DHT22;13141;50.414;8.050;2023-07-20T14:31:54;27.70;65.80
25188;DHT22;13141;50.414;8.050;2023-07-20T14:34:19;27.80;62.60
25188;DHT22;13141;50.414;8.050;2023-07-20T14:36:45;27.70;59.60
25188;DHT22;13141;50.414;8.050;2023-07-20T14:39:11;27.50;60.80
25188;DHT22;13141;50.414;8.050;2023-07-20T14:41:37;27.50;61.20
25188;DHT22;13141;50.414;8.050;2023-07-20T14:44:03;27.70;65.20
25188;DHT22;13141;50.414;8.050;2023-07-20T14:46:31;27.70;65.70
25188;DHT22;13141;50.414;8.050;2023-07-20T14:48:57;27.80;67.30
25188;DHT22;13141;50.414;8.050;2023-07-20T14:51:23;27.80;66.80
25188;DHT22;13141;50.414;8.050;2023-07-20T14:53:48;27.80;67.50
25188;DHT22;13141;50.414;8.050;2023-07-20T14:56:14;27.80;67.70
25188;DHT22;13141;50.414;8.050;2023-07-20T14:58:40;28.00;67.70
25188;DHT22;13141;50.414;8.050;2023-07-20T15:01:05;28.40;67.90
25188;DHT22;13141;50.414;8.050;2023-07-20T15:03:32;28.90;68.40
25188;DHT22;13141;50.414;8.050;2023-07-20T15:05:58;29.30;64.00
25188;DHT22;13141;50.414;8.050;2023-07-20T15:08:25;29.50;64.10
25188;DHT22;13141;50.414;8.050;2023-07-20T15:10:51;29.70;65.50
25188;DHT22;13141;50.414;8.050;2023-07-20T15:13:16;29.40;64.80
25188;DHT22;13141;50.414;8.050;2023-07-20T15:15:42;29.20;63.70
25188;DHT22;13141;50.414;8.050;2023-07-20T15:18:08;29.30;65.00
25188;DHT22;13141;50.414;8.050;2023-07-20T15:20:35;29.10;64.30
25188;DHT22;13141;50.414;8.050;2023-07-20T15:23:00;28.90;63.90
25188;DHT22;13141;50.414;8.050;2023-07-20T15:25:28;28.80;64.80
25188;DHT22;13141;50.414;8.050;2023-07-20T15:27:55;28.70;63.70